Lockport-Weather Station Historical Data
Daily Summary for September 21, 2020 Units:  English    Metric   Both
Daily Weekly Monthly Yearly Custom
  High: Low: Average:
Temperature: 68.7 °F 36.6 °F 50.6 °F
Dew Point: 45.5 °F 32.2 °F 37.1 °F
Humidity: 87% 35.2% 64%
Wind Speed: 4.2mph 0mph 1.2mph
Wind Gust: 8mph - -
Wind- - ESE
Pressure: 30.61 in 30.46 in -
Precipitation: 0.00 in    
 
 
Tabular Data for September 21, 2020
Time Temperature Dew Point Pressure Wind Wind Speed Wind Gust Humidity Rainfall Rate (Hourly) solar
00:04 45.2 °F 36.2 °F 30.58 in ENE 1.1 mph 2 mph 70.5% 0.00 in W/m2
00:09 45.1 °F 35.9 °F 30.58 in ENE 0.7 mph 2 mph 70% 0.00 in W/m2
00:14 45 °F 36.1 °F 30.58 in ENE 0.6 mph 2 mph 70.8% 0.00 in W/m2
00:19 44.8 °F 36 °F 30.58 in ENE 1 mph 2 mph 71.1% 0.00 in W/m2
00:24 44.7 °F 36.1 °F 30.58 in ENE 1.1 mph 2 mph 71.4% 0.00 in W/m2
00:29 44.7 °F 36.1 °F 30.58 in ENE 1 mph 2 mph 71.6% 0.00 in W/m2
00:34 44.4 °F 36.2 °F 30.58 in ENE 1.2 mph 2 mph 72.9% 0.00 in W/m2
00:39 43.9 °F 36.2 °F 30.58 in ENE 1.5 mph 3 mph 74.3% 0.00 in W/m2
00:44 43.9 °F 36.1 °F 30.58 in ENE 1.2 mph 3 mph 73.7% 0.00 in W/m2
00:49 44.2 °F 36.1 °F 30.58 in ENE 1.5 mph 3 mph 73.2% 0.00 in W/m2
00:54 44.3 °F 36.1 °F 30.58 in ENE 1.3 mph 3 mph 72.8% 0.00 in W/m2
00:59 44.3 °F 36.2 °F 30.58 in ENE 1.4 mph 3 mph 72.9% 0.00 in W/m2
01:04 44.2 °F 35.8 °F 30.58 in ENE 1.2 mph 2 mph 72.3% 0.00 in W/m2
01:09 44.1 °F 36 °F 30.58 in ENE 1.1 mph 2 mph 72.9% 0.00 in W/m2
01:14 43.8 °F 36.1 °F 30.58 in ENE 0.8 mph 2 mph 74.2% 0.00 in W/m2
01:19 43.1 °F 35.9 °F 30.58 in ENE 0.9 mph 2 mph 75.3% 0.00 in W/m2
01:24 42.7 °F 35.9 °F 30.58 in ENE 1.1 mph 2 mph 76.4% 0.00 in W/m2
01:29 42.9 °F 36 °F 30.58 in ENE 1.4 mph 2 mph 76.6% 0.00 in W/m2
01:34 43.3 °F 36 °F 30.58 in ENE 1.4 mph 2 mph 75.4% 0.00 in W/m2
01:39 43.5 °F 36 °F 30.58 in ENE 1.1 mph 2 mph 74.6% 0.00 in W/m2
01:44 43.5 °F 35.8 °F 30.58 in ENE 0.5 mph 2 mph 74.2% 0.00 in W/m2
01:49 43.1 °F 35.7 °F 30.58 in ENE 0.7 mph 2 mph 75% 0.00 in W/m2
01:54 42.6 °F 35.6 °F 30.58 in ENE 0.1 mph 2 mph 75.8% 0.00 in W/m2
01:59 42.3 °F 35.6 °F 30.58 in ENE 0.4 mph 1 mph 76.8% 0.00 in W/m2
02:04 42 °F 35.4 °F 30.58 in ENE 0.4 mph 1 mph 77.2% 0.00 in W/m2
02:09 41.8 °F 35.3 °F 30.58 in ENE 1 mph 2 mph 77.6% 0.00 in W/m2
02:14 41.7 °F 35.6 °F 30.58 in ENE 0.4 mph 2 mph 78.7% 0.00 in W/m2
02:19 41.7 °F 35.7 °F 30.57 in ENE 0.7 mph 2 mph 79% 0.00 in W/m2
02:24 41.8 °F 35.8 °F 30.57 in ENE 0.3 mph 2 mph 79% 0.00 in W/m2
02:29 41.8 °F 35.8 °F 30.57 in ENE 0.6 mph 2 mph 79% 0.00 in W/m2
02:34 41.7 °F 35.7 °F 30.57 in ENE 0.6 mph 2 mph 79% 0.00 in W/m2
02:39 41.7 °F 35.7 °F 30.57 in ENE 0.5 mph 2 mph 79% 0.00 in W/m2
02:44 41.6 °F 35.6 °F 30.57 in ENE 0.7 mph 2 mph 79% 0.00 in W/m2
02:49 41.3 °F 35.3 °F 30.57 in ENE 1.1 mph 2 mph 79% 0.00 in W/m2
02:54 41 °F 35.3 °F 30.57 in ENE 0.8 mph 2 mph 80% 0.00 in W/m2
02:59 40.7 °F 35 °F 30.57 in ENE 0.8 mph 2 mph 80% 0.00 in W/m2
03:04 40.4 °F 34.8 °F 30.57 in ENE 1 mph 2 mph 80.6% 0.00 in W/m2
03:09 40 °F 34.6 °F 30.57 in ENE 0.9 mph 2 mph 81% 0.00 in W/m2
03:14 39.8 °F 34.6 °F 30.57 in ENE 0.9 mph 2 mph 81.4% 0.00 in W/m2
03:19 39.7 °F 34.7 °F 30.57 in ENE 0.8 mph 2 mph 82% 0.00 in W/m2
03:24 39.6 °F 34.6 °F 30.57 in ENE 0.4 mph 2 mph 82% 0.00 in W/m2
03:29 39.5 °F 34.5 °F 30.56 in ENE 0.5 mph 1 mph 82% 0.00 in W/m2
03:34 39.5 °F 34.8 °F 30.56 in ENE 1.2 mph 2 mph 83% 0.00 in W/m2
03:39 39.5 °F 34.8 °F 30.57 in ENE 1 mph 2 mph 83% 0.00 in W/m2
03:44 39.5 °F 34.8 °F 30.56 in ENE 0.9 mph 2 mph 83% 0.00 in W/m2
03:49 39.5 °F 34.8 °F 30.57 in ENE 1 mph 2 mph 83% 0.00 in W/m2
03:54 39.5 °F 34.8 °F 30.57 in ENE 0.9 mph 2 mph 83% 0.00 in W/m2
03:59 39.4 °F 34.7 °F 30.57 in ENE 0.8 mph 2 mph 83% 0.00 in W/m2
04:04 39.4 °F 34.7 °F 30.57 in ENE 0.4 mph 2 mph 83% 0.00 in W/m2
04:09 39.4 °F 34.7 °F 30.57 in Calm   1 mph 83% 0.00 in W/m2
04:14 39.4 °F 34.4 °F 30.57 in ENE 0.1 mph 1 mph 82.2% 0.00 in W/m2
04:19 39.3 °F 34.3 °F 30.57 in Calm   1 mph 82% 0.00 in W/m2
04:24 39.3 °F 34.3 °F 30.57 in Calm   1 mph 82% 0.00 in W/m2
04:29 39.3 °F 34.3 °F 30.57 in Calm     82% 0.00 in W/m2
04:34 39.3 °F 34.3 °F 30.57 in Calm     82% 0.00 in W/m2
04:39 39.2 °F 34.2 °F 30.57 in Calm     82% 0.00 in W/m2
04:44 39.1 °F 34.1 °F 30.57 in Calm     82% 0.00 in W/m2
04:49 39.1 °F 34.1 °F 30.57 in Calm     82% 0.00 in W/m2
04:54 39 °F 34 °F 30.57 in Calm     82% 0.00 in W/m2
04:59 38.9 °F 33.9 °F 30.57 in Calm     82% 0.00 in W/m2
05:04 38.9 °F 33.9 °F 30.57 in Calm     82% 0.00 in W/m2
05:09 38.8 °F 33.8 °F 30.57 in Calm     82% 0.00 in W/m2
05:14 38.8 °F 33.8 °F 30.57 in Calm     82% 0.00 in W/m2
05:19 38.7 °F 33.7 °F 30.58 in Calm     82% 0.00 in W/m2
05:24 38.6 °F 33.6 °F 30.58 in Calm     82% 0.00 in W/m2
05:29 38.5 °F 33.5 °F 30.58 in Calm     82% 0.00 in W/m2
05:34 38.4 °F 33.4 °F 30.57 in Calm     82% 0.00 in W/m2
05:39 38.3 °F 33.3 °F 30.57 in Calm     82% 0.00 in W/m2
05:44 38.2 °F 33.2 °F 30.58 in Calm     82% 0.00 in W/m2
05:49 38.1 °F 33.1 °F 30.58 in Calm     82% 0.00 in W/m2
05:54 38 °F 33 °F 30.58 in Calm     82% 0.00 in W/m2
05:59 38 °F 33.2 °F 30.58 in Calm     82.9% 0.00 in W/m2
06:04 37.9 °F 33.2 °F 30.58 in Calm     83% 0.00 in W/m2
06:09 37.8 °F 33.1 °F 30.58 in Calm     83% 0.00 in W/m2
06:14 37.7 °F 33 °F 30.58 in Calm     83% 0.00 in W/m2
06:19 37.7 °F 33.3 °F 30.58 in Calm     84% 0.00 in W/m2
06:24 37.6 °F 33.2 °F 30.58 in Calm     84% 0.00 in W/m2
06:29 37.5 °F 33 °F 30.58 in Calm     83.7% 0.00 in W/m2
06:34 37.4 °F 32.7 °F 30.58 in Calm     83% 0.00 in W/m2
06:39 37.3 °F 32.6 °F 30.58 in Calm     83% 0.00 in W/m2
06:44 37.2 °F 32.5 °F 30.58 in Calm     83% 0.00 in W/m2
06:49 37.1 °F 32.4 °F 30.58 in Calm     83% 0.00 in W/m2
06:54 37 °F 32.3 °F 30.58 in Calm     83% 0.00 in W/m2
06:59 36.9 °F 32.5 °F 30.58 in Calm     83.8% 0.00 in W/m2
07:04 36.8 °F 32.4 °F 30.59 in Calm     84% 0.00 in W/m2
07:09 36.8 °F 32.2 °F 30.59 in Calm     83.4% 0.00 in W/m2
07:14 36.7 °F 32.2 °F 30.59 in Calm     83.6% 0.00 in W/m2
07:19 36.7 °F 32.3 °F 30.59 in Calm     84% 0.00 in W/m2
07:24 36.6 °F 32.2 °F 30.59 in Calm     84% 0.00 in W/m2
07:29 36.6 °F 32.2 °F 30.59 in Calm     84% 0.00 in W/m2
07:34 36.6 °F 32.2 °F 30.59 in Calm     84% 0.00 in W/m2
07:39 36.7 °F 32.5 °F 30.59 in Calm     84.8% 0.00 in W/m2
07:44 36.7 °F 32.6 °F 30.59 in Calm     85% 0.00 in W/m2
07:49 36.9 °F 32.8 °F 30.59 in Calm     85% 0.00 in W/m2
07:54 37 °F 33.1 °F 30.59 in Calm     85.5% 0.00 in W/m2
07:59 37.3 °F 33.5 °F 30.60 in ENE 0.6 mph 2 mph 86% 0.00 in W/m2
08:04 37.5 °F 33.8 °F 30.60 in ENE 0.6 mph 2 mph 86.2% 0.00 in W/m2
08:09 37.8 °F 34.3 °F 30.59 in East 0.9 mph 2 mph 87% 0.00 in W/m2
08:14 38.1 °F 34.6 °F 30.59 in SSE 0.9 mph 2 mph 87% 0.00 in W/m2
08:19 38.5 °F 35 °F 30.59 in SSE 1.6 mph 4 mph 87% 0.00 in W/m2
08:24 39.1 °F 35.5 °F 30.59 in South 2 mph 5 mph 86.8% 0.00 in W/m2
08:29 39.7 °F 35.8 °F 30.59 in South 2 mph 5 mph 85.8% 0.00 in W/m2
08:34 40.2 °F 36.1 °F 30.60 in South 1.7 mph 6 mph 85% 0.00 in W/m2
08:39 40.8 °F 36.3 °F 30.60 in South 1.9 mph 6 mph 83.8% 0.00 in W/m2
08:44 41.5 °F 36.6 °F 30.60 in SSE 2.3 mph 6 mph 82.5% 0.00 in W/m2
08:49 42.3 °F 36.7 °F 30.60 in SSE 1.9 mph 5 mph 80.4% 0.00 in W/m2
08:54 43 °F 36.8 °F 30.60 in South 2.4 mph 5 mph 78.4% 0.00 in W/m2
08:59 43.7 °F 36.8 °F 30.60 in SSE 2.3 mph 5 mph 76.4% 0.00 in W/m2
09:04 44.6 °F 36.9 °F 30.60 in South 2.4 mph 5 mph 74.3% 0.00 in W/m2
09:09 47.1 °F 37.7 °F 30.60 in South 2.2 mph 5 mph 69.8% 0.00 in W/m2
09:14 48.5 °F 37.8 °F 30.60 in South 1.6 mph 5 mph 66.5% 0.00 in W/m2
09:19 49.3 °F 37.8 °F 30.60 in SSE 2.4 mph 5 mph 64.6% 0.00 in W/m2
09:24 49.9 °F 38.1 °F 30.60 in SSW 1.4 mph 5 mph 63.7% 0.00 in W/m2
09:29 50.5 °F 38.4 °F 30.60 in South 2.1 mph 5 mph 63.1% 0.00 in W/m2
09:34 51.1 °F 38.1 °F 30.61 in SSE 2.4 mph 5 mph 61.1% 0.00 in W/m2
09:39 51.6 °F 38.3 °F 30.61 in SSE 1.9 mph 5 mph 60.4% 0.00 in W/m2
09:44 52.2 °F 39 °F 30.61 in SSE 1.4 mph 5 mph 60.7% 0.00 in W/m2
09:49 52.8 °F 39.4 °F 30.61 in South 1.5 mph 4 mph 60.3% 0.00 in W/m2
09:54 53.4 °F 39.2 °F 30.61 in South 2 mph 5 mph 58.5% 0.00 in W/m2
09:59 54.1 °F 40 °F 30.61 in SSE 1.5 mph 5 mph 58.7% 0.00 in W/m2
10:04 54.5 °F 39.8 °F 30.61 in SSE 2.2 mph 5 mph 57.5% 0.00 in W/m2
10:09 55.1 °F 40 °F 30.61 in South 2.4 mph 6 mph 56.8% 0.00 in W/m2
10:14 55.7 °F 40.5 °F 30.61 in SSW 1.7 mph 6 mph 56.6% 0.00 in W/m2
10:19 56.3 °F 41 °F 30.61 in SSE 2.5 mph 6 mph 56.5% 0.00 in W/m2
10:24 57.2 °F 41.3 °F 30.61 in SSE 1.7 mph 5 mph 55.2% 0.00 in W/m2
10:29 57.8 °F 40.8 °F 30.61 in South 1.8 mph 6 mph 53.1% 0.00 in W/m2
10:34 58.3 °F 40.8 °F 30.61 in SSE 2.1 mph 6 mph 52.1% 0.00 in W/m2
10:39 58.9 °F 40.5 °F 30.61 in SSE 3.1 mph 7 mph 50.4% 0.00 in W/m2
10:44 59.2 °F 39.7 °F 30.61 in SSE 2.4 mph 7 mph 48.5% 0.00 in W/m2
10:49 59.8 °F 40.1 °F 30.61 in SSW 2.5 mph 7 mph 48.2% 0.00 in W/m2
10:54 60.1 °F 39.9 °F 30.61 in SSE 2.3 mph 5 mph 47.2% 0.00 in W/m2
10:59 60.8 °F 40.8 °F 30.61 in South 1.6 mph 5 mph 47.7% 0.00 in W/m2
11:04 61.7 °F 41.6 °F 30.61 in SSE 1.9 mph 5 mph 47.6% 0.00 in W/m2
11:14 61.9 °F 40.5 °F 30.60 in SSW 1.7 mph 5 mph 45.3% 0.00 in W/m2
11:19 62.4 °F 41.8 °F 30.60 in SW 1.5 mph 4 mph 46.8% 0.00 in W/m2
11:24 62.9 °F 41 °F 30.60 in WSW 2 mph 5 mph 44.7% 0.00 in W/m2
11:29 63.4 °F 40.8 °F 30.60 in SSE 1.8 mph 5 mph 43.5% 0.00 in W/m2
11:34 62.7 °F 39.8 °F 30.60 in SE 2 mph 5 mph 42.8% 0.00 in W/m2
11:39 62.7 °F 40.5 °F 30.60 in SSE 0.6 mph 4 mph 44.1% 0.00 in W/m2
11:44 63.3 °F 40.4 °F 30.60 in SSE 1.3 mph 5 mph 43% 0.00 in W/m2
11:49 64 °F 38.5 °F 30.60 in SSE 1.8 mph 5 mph 39.1% 0.00 in W/m2
11:54 64.1 °F 39 °F 30.59 in SSE 1.5 mph 5 mph 39.7% 0.00 in W/m2
11:59 63.7 °F 36.9 °F 30.59 in SSE 1.9 mph 4 mph 37% 0.00 in W/m2
12:04 63.3 °F 36.8 °F 30.59 in South 1.1 mph 4 mph 37.3% 0.00 in W/m2
12:09 63.3 °F 38.4 °F 30.59 in South 0.8 mph 4 mph 39.8% 0.00 in W/m2
12:14 63.8 °F 39.2 °F 30.59 in South 1.3 mph 3 mph 40.4% 0.00 in W/m2
12:19 64.6 °F 40.1 °F 30.59 in SE 1.7 mph 5 mph 40.7% 0.00 in W/m2
12:24 64.1 °F 37.8 °F 30.58 in SSE 2.1 mph 7 mph 37.8% 0.00 in W/m2
12:29 63.8 °F 37.6 °F 30.58 in SSW 1.9 mph 7 mph 37.9% 0.00 in W/m2
12:34 63.9 °F 37.2 °F 30.58 in South 2.2 mph 7 mph 37.2% 0.00 in W/m2
12:39 63.2 °F 36.1 °F 30.58 in South 2 mph 6 mph 36.5% 0.00 in W/m2
12:44 63.2 °F 36.9 °F 30.57 in SW 1.4 mph 4 mph 37.7% 0.00 in W/m2
12:49 62.9 °F 36.7 °F 30.57 in SW 0.5 mph 3 mph 37.7% 0.00 in W/m2
12:54 63.1 °F 37.4 °F 30.57 in SW 2.2 mph 5 mph 38.5% 0.00 in W/m2
12:59 63.6 °F 37 °F 30.57 in SSW 2.4 mph 6 mph 37.3% 0.00 in W/m2
13:04 63.4 °F 38.8 °F 30.56 in SSW 0.7 mph 6 mph 40.4% 0.00 in W/m2
13:09 63.8 °F 37.3 °F 30.56 in SSW 2.2 mph 6 mph 37.5% 0.00 in W/m2
13:14 63.8 °F 38.6 °F 30.56 in SE 1.6 mph 5 mph 39.3% 0.00 in W/m2
13:19 64.1 °F 39.2 °F 30.56 in ENE 2.3 mph 5 mph 39.8% 0.00 in W/m2
13:24 63.8 °F 37.6 °F 30.56 in ENE 1 mph 5 mph 37.9% 0.00 in W/m2
13:29 64 °F 37.9 °F 30.56 in SE 1.3 mph 5 mph 38% 0.00 in W/m2
13:34 64.4 °F 39.1 °F 30.55 in East 1.8 mph 4 mph 39.2% 0.00 in W/m2
13:39 64.6 °F 39.9 °F 30.55 in NNE 1.1 mph 4 mph 40.3% 0.00 in W/m2
13:44 64.8 °F 40.5 °F 30.55 in NE 2 mph 4 mph 40.8% 0.00 in W/m2
13:49 65.2 °F 40.3 °F 30.55 in ENE 1.6 mph 4 mph 40.1% 0.00 in W/m2
13:54 65.2 °F 39.4 °F 30.54 in ENE 1.7 mph 4 mph 38.8% 0.00 in W/m2
13:59 65.2 °F 39.2 °F 30.54 in SSE 1.6 mph 5 mph 38.4% 0.00 in W/m2
14:04 65.1 °F 38.7 °F 30.54 in South 1.7 mph 5 mph 37.8% 0.00 in W/m2
14:09 65.1 °F 38.9 °F 30.53 in SE 2.2 mph 6 mph 38% 0.00 in W/m2
14:14 65 °F 38.6 °F 30.53 in SE 1.9 mph 6 mph 37.8% 0.00 in W/m2
14:19 65.4 °F 38.4 °F 30.53 in South 2.3 mph 6 mph 37% 0.00 in W/m2
14:24 65.4 °F 39.7 °F 30.52 in SE 2.2 mph 6 mph 39% 0.00 in W/m2
14:29 65.1 °F 39 °F 30.52 in East 1.6 mph 5 mph 38.3% 0.00 in W/m2
14:34 64.9 °F 38.6 °F 30.52 in NE 2.2 mph 5 mph 38% 0.00 in W/m2
14:39 64.5 °F 37.6 °F 30.51 in NNE 1.6 mph 5 mph 37% 0.00 in W/m2
14:44 64.8 °F 38.4 °F 30.51 in NNE 1.4 mph 4 mph 37.8% 0.00 in W/m2
14:49 64.9 °F 40.4 °F 30.51 in NE 1.6 mph 4 mph 40.7% 0.00 in W/m2
14:54 64.9 °F 38.6 °F 30.51 in ESE 1.4 mph 4 mph 37.8% 0.00 in W/m2
14:59 65.1 °F 40.6 °F 30.50 in SSE 1.4 mph 4 mph 40.8% 0.00 in W/m2
15:04 65.3 °F 39.9 °F 30.50 in SSE 1.5 mph 3 mph 39.5% 0.00 in W/m2
15:09 65.9 °F 39.8 °F 30.50 in SSE 1.3 mph 3 mph 38.4% 0.00 in W/m2
15:14 66.3 °F 39.6 °F 30.50 in SSE 0.9 mph 3 mph 37.7% 0.00 in W/m2
15:19 65.8 °F 39.8 °F 30.49 in SSE 0.8 mph 3 mph 38.6% 0.00 in W/m2
15:24 65.7 °F 39.3 °F 30.49 in SSE 0.7 mph 3 mph 38.1% 0.00 in W/m2
15:29 66.4 °F 41.6 °F 30.49 in SSE 0.5 mph 3 mph 40.4% 0.00 in W/m2
15:34 67.1 °F 41.9 °F 30.49 in SSE 0.7 mph 3 mph 40% 0.00 in W/m2
15:39 66.7 °F 41.6 °F 30.49 in SSE 1.1 mph 3 mph 40.1% 0.00 in W/m2
15:44 66 °F 42.2 °F 30.49 in SSE 1.2 mph 3 mph 41.9% 0.00 in W/m2
15:49 67.4 °F 41.8 °F 30.48 in SSE 1.1 mph 3 mph 39.4% 0.00 in W/m2
15:54 66.8 °F 40.5 °F 30.48 in SE 1.8 mph 4 mph 38.2% 0.00 in W/m2
15:59 67.4 °F 41.5 °F 30.48 in East 2.6 mph 5 mph 39% 0.00 in W/m2
16:04 67.4 °F 38.9 °F 30.47 in East 0.9 mph 5 mph 35.2% 0.00 in W/m2
16:09 67 °F 38.9 °F 30.47 in SE 1.3 mph 5 mph 35.7% 0.00 in W/m2
16:14 66.9 °F 38.5 °F 30.47 in South 1.6 mph 4 mph 35.2% 0.00 in W/m2
16:19 67.5 °F 39.8 °F 30.47 in South 1.1 mph 4 mph 36.3% 0.00 in W/m2
16:24 67.6 °F 42.6 °F 30.46 in South 1 mph 4 mph 40.4% 0.00 in W/m2
16:29 68.7 °F 44.6 °F 30.46 in ENE 2.8 mph 5 mph 41.9% 0.00 in W/m2
16:34 68 °F 45.5 °F 30.46 in ENE 3.6 mph 7 mph 44.5% 0.00 in W/m2
16:39 67.1 °F 45.5 °F 30.46 in NE 3.3 mph 7 mph 45.8% 0.00 in W/m2
16:44 66.1 °F 45 °F 30.46 in NE 3.9 mph 7 mph 46.5% 0.00 in W/m2
16:49 64.9 °F 44.5 °F 30.46 in NE 4.2 mph 7 mph 47.7% 0.00 in W/m2
16:54 64.5 °F 44.9 °F 30.46 in ENE 3.5 mph 7 mph 49% 0.00 in W/m2
16:59 64.2 °F 45 °F 30.46 in NNE 3.4 mph 7 mph 49.9% 0.00 in W/m2
17:04 63.8 °F 44.2 °F 30.46 in NNE 3.4 mph 7 mph 48.8% 0.00 in W/m2
17:09 63.4 °F 44.4 °F 30.46 in North 4.1 mph 8 mph 50% 0.00 in W/m2
17:14 63 °F 44.3 °F 30.46 in NE 3.9 mph 8 mph 50.5% 0.00 in W/m2
Lockport, New York, USA
Compliments of Weather Underground - 2.25 mb